sensor_id;sensor_type;location;lat;lon;timestamp;pressure;altitude;pressure_sealevel;temperature;humidity
45040;BME280;30778;53.574;7.770;2023-05-11T00:01:31;101491.38;;;8.62;57.29
45040;BME280;30778;53.574;7.770;2023-05-11T00:03:59;101498.56;;;8.50;57.03
45040;BME280;30778;53.574;7.770;2023-05-11T00:06:25;101495.13;;;8.48;57.26
45040;BME280;30778;53.574;7.770;2023-05-11T00:08:51;101487.53;;;8.39;57.42
45040;BME280;30778;53.574;7.770;2023-05-11T00:11:16;101494.31;;;8.46;57.84
45040;BME280;30778;53.574;7.770;2023-05-11T00:13:43;101500.09;;;8.61;57.37
45040;BME280;30778;53.574;7.770;2023-05-11T00:16:09;101485.31;;;8.61;57.33
45040;BME280;30778;53.574;7.770;2023-05-11T00:18:34;101489.72;;;8.57;57.04
45040;BME280;30778;53.574;7.770;2023-05-11T00:21:01;101488.06;;;8.55;57.14
45040;BME280;30778;53.574;7.770;2023-05-11T00:23:26;101491.72;;;8.46;57.36
45040;BME280;30778;53.574;7.770;2023-05-11T00:25:52;101490.88;;;8.44;57.45
45040;BME280;30778;53.574;7.770;2023-05-11T00:28:17;101496.16;;;8.43;57.48
45040;BME280;30778;53.574;7.770;2023-05-11T00:30:43;101491.81;;;8.40;57.50
45040;BME280;30778;53.574;7.770;2023-05-11T00:33:11;101490.13;;;8.39;57.89
45040;BME280;30778;53.574;7.770;2023-05-11T00:35:37;101490.22;;;8.36;57.41
45040;BME280;30778;53.574;7.770;2023-05-11T00:38:02;101498.16;;;8.28;57.62
45040;BME280;30778;53.574;7.770;2023-05-11T00:40:30;101493.78;;;8.29;57.54
45040;BME280;30778;53.574;7.770;2023-05-11T00:42:55;101494.63;;;8.31;57.71
45040;BME280;30778;53.574;7.770;2023-05-11T00:45:21;101489.50;;;8.26;57.54
45040;BME280;30778;53.574;7.770;2023-05-11T00:47:46;101493.97;;;8.21;57.61
45040;BME280;30778;53.574;7.770;2023-05-11T00:50:12;101492.09;;;8.28;57.99
45040;BME280;30778;53.574;7.770;2023-05-11T00:52:38;101495.47;;;8.33;57.40
45040;BME280;30778;53.574;7.770;2023-05-11T00:55:03;101493.97;;;8.21;57.26
45040;BME280;30778;53.574;7.770;2023-05-11T00:57:29;101502.63;;;8.22;57.43
45040;BME280;30778;53.574;7.770;2023-05-11T01:00:00;101499.19;;;8.20;57.52
45040;BME280;30778;53.574;7.770;2023-05-11T01:02:26;101492.28;;;8.19;57.54
45040;BME280;30778;53.574;7.770;2023-05-11T01:04:51;101499.31;;;8.13;57.47
45040;BME280;30778;53.574;7.770;2023-05-11T01:10:25;101498.53;;;8.10;57.60
45040;BME280;30778;53.574;7.770;2023-05-11T01:13:18;101507.25;;;8.07;57.69
45040;BME280;30778;53.574;7.770;2023-05-11T01:15:50;101506.63;;;7.96;57.53
45040;BME280;30778;53.574;7.770;2023-05-11T01:20:49;101509.06;;;8.04;57.97
45040;BME280;30778;53.574;7.770;2023-05-11T01:31:46;101515.47;;;7.86;57.64
45040;BME280;30778;53.574;7.770;2023-05-11T01:34:18;101506.72;;;7.91;57.79
45040;BME280;30778;53.574;7.770;2023-05-11T01:36:58;101515.00;;;8.10;57.84
45040;BME280;30778;53.574;7.770;2023-05-11T01:39:34;101512.19;;;8.21;57.84
45040;BME280;30778;53.574;7.770;2023-05-11T01:42:06;101509.47;;;8.27;57.13
45040;BME280;30778;53.574;7.770;2023-05-11T01:44:33;101510.50;;;8.19;57.13
45040;BME280;30778;53.574;7.770;2023-05-11T01:47:01;101508.78;;;8.18;57.49
45040;BME280;30778;53.574;7.770;2023-05-11T01:49:28;101508.78;;;8.18;57.60
45040;BME280;30778;53.574;7.770;2023-05-11T01:51:57;101512.81;;;8.34;57.35
45040;BME280;30778;53.574;7.770;2023-05-11T01:54:25;101517.03;;;8.38;57.18
45040;BME280;30778;53.574;7.770;2023-05-11T01:56:52;101508.75;;;8.19;57.30
45040;BME280;30778;53.574;7.770;2023-05-11T01:59:20;101508.38;;;8.38;56.60
45040;BME280;30778;53.574;7.770;2023-05-11T02:01:46;101500.66;;;8.33;56.83
45040;BME280;30778;53.574;7.770;2023-05-11T02:04:13;101518.25;;;8.22;56.73
45040;BME280;30778;53.574;7.770;2023-05-11T02:06:40;101515.09;;;8.06;56.87
45040;BME280;30778;53.574;7.770;2023-05-11T02:09:08;101522.19;;;7.98;57.41
45040;BME280;30778;53.574;7.770;2023-05-11T02:11:35;101527.53;;;7.91;57.29
45040;BME280;30778;53.574;7.770;2023-05-11T02:14:02;101520.53;;;7.93;57.61
45040;BME280;30778;53.574;7.770;2023-05-11T02:16:30;101519.59;;;7.98;57.92
45040;BME280;30778;53.574;7.770;2023-05-11T02:18:59;101527.06;;;8.16;57.25
45040;BME280;30778;53.574;7.770;2023-05-11T02:21:26;101528.31;;;7.95;57.45
45040;BME280;30778;53.574;7.770;2023-05-11T02:23:53;101528.78;;;7.69;57.96
45040;BME280;30778;53.574;7.770;2023-05-11T02:26:19;101535.59;;;7.76;57.73
45040;BME280;30778;53.574;7.770;2023-05-11T02:28:44;101533.41;;;8.01;57.08
45040;BME280;30778;53.574;7.770;2023-05-11T02:31:15;101538.75;;;7.93;57.08
45040;BME280;30778;53.574;7.770;2023-05-11T02:33:43;101537.84;;;7.96;57.10
45040;BME280;30778;53.574;7.770;2023-05-11T02:36:16;101537.03;;;7.94;57.08
45040;BME280;30778;53.574;7.770;2023-05-11T02:38:45;101534.28;;;8.00;57.48
45040;BME280;30778;53.574;7.770;2023-05-11T02:41:13;101544.59;;;8.06;57.16
45040;BME280;30778;53.574;7.770;2023-05-11T02:43:44;101547.44;;;7.94;56.71
45040;BME280;30778;53.574;7.770;2023-05-11T02:46:14;101548.44;;;7.85;56.82
45040;BME280;30778;53.574;7.770;2023-05-11T02:48:44;101545.09;;;7.79;56.88
45040;BME280;30778;53.574;7.770;2023-05-11T02:51:13;101543.25;;;7.84;57.09
45040;BME280;30778;53.574;7.770;2023-05-11T02:53:45;101557.13;;;7.86;57.29
45040;BME280;30778;53.574;7.770;2023-05-11T02:56:11;101549.38;;;7.81;56.87
45040;BME280;30778;53.574;7.770;2023-05-11T02:58:40;101543.44;;;7.74;57.38
45040;BME280;30778;53.574;7.770;2023-05-11T03:01:16;101554.56;;;7.83;57.20
45040;BME280;30778;53.574;7.770;2023-05-11T03:03:44;101550.25;;;7.82;57.07
45040;BME280;30778;53.574;7.770;2023-05-11T03:06:10;101547.69;;;7.79;57.18
45040;BME280;30778;53.574;7.770;2023-05-11T03:08:36;101549.41;;;7.80;57.09
45040;BME280;30778;53.574;7.770;2023-05-11T03:11:02;101547.81;;;7.71;57.65
45040;BME280;30778;53.574;7.770;2023-05-11T03:13:29;101550.22;;;7.85;57.79
45040;BME280;30778;53.574;7.770;2023-05-11T03:15:58;101554.41;;;7.92;57.46
45040;BME280;30778;53.574;7.770;2023-05-11T03:18:25;101550.03;;;7.94;56.82
45040;BME280;30778;53.574;7.770;2023-05-11T03:20:50;101546.69;;;7.86;56.95
45040;BME280;30778;53.574;7.770;2023-05-11T03:23:17;101541.50;;;7.86;57.02
45040;BME280;30778;53.574;7.770;2023-05-11T03:25:43;101550.22;;;7.85;57.08
45040;BME280;30778;53.574;7.770;2023-05-11T03:28:10;101545.88;;;7.84;57.31
45040;BME280;30778;53.574;7.770;2023-05-11T03:30:38;101549.31;;;7.84;57.22
45040;BME280;30778;53.574;7.770;2023-05-11T03:33:04;101553.50;;;7.93;57.63
45040;BME280;30778;53.574;7.770;2023-05-11T03:35:32;101550.06;;;7.91;57.35
45040;BME280;30778;53.574;7.770;2023-05-11T03:37:59;101544.66;;;8.03;57.13
45040;BME280;30778;53.574;7.770;2023-05-11T03:40:26;101539.53;;;7.99;56.89
45040;BME280;30778;53.574;7.770;2023-05-11T03:42:55;101540.47;;;7.96;57.30
45040;BME280;30778;53.574;7.770;2023-05-11T03:45:24;101542.34;;;7.86;57.26
45040;BME280;30778;53.574;7.770;2023-05-11T03:47:52;101547.69;;;7.80;57.67
45040;BME280;30778;53.574;7.770;2023-05-11T03:50:20;101546.78;;;7.83;57.33
45040;BME280;30778;53.574;7.770;2023-05-11T03:52:46;101545.03;;;7.82;57.53
45040;BME280;30778;53.574;7.770;2023-05-11T03:55:12;101543.34;;;7.79;57.25
45040;BME280;30778;53.574;7.770;2023-05-11T03:57:38;101538.59;;;7.51;57.64
45040;BME280;30778;53.574;7.770;2023-05-11T04:00:05;101539.25;;;7.66;57.81
45040;BME280;30778;53.574;7.770;2023-05-11T04:02:40;101539.81;;;7.82;57.16
45040;BME280;30778;53.574;7.770;2023-05-11T04:05:07;101545.25;;;7.69;57.17
45040;BME280;30778;53.574;7.770;2023-05-11T04:07:34;101542.03;;;7.53;57.02
45040;BME280;30778;53.574;7.770;2023-05-11T04:10:01;101548.13;;;7.51;56.88
45040;BME280;30778;53.574;7.770;2023-05-11T04:12:28;101549.16;;;7.42;57.27
45040;BME280;30778;53.574;7.770;2023-05-11T04:14:54;101546.66;;;7.33;57.11
45040;BME280;30778;53.574;7.770;2023-05-11T04:17:19;101553.63;;;7.32;57.49
45040;BME280;30778;53.574;7.770;2023-05-11T04:19:45;101552.78;;;7.30;56.97
45040;BME280;30778;53.574;7.770;2023-05-11T04:22:11;101547.75;;;7.20;57.27
45040;BME280;30778;53.574;7.770;2023-05-11T04:24:37;101553.91;;;7.14;57.32
45040;BME280;30778;53.574;7.770;2023-05-11T04:27:03;101552.16;;;7.15;57.11
45040;BME280;30778;53.574;7.770;2023-05-11T04:29:29;101557.34;;;7.16;58.00
45040;BME280;30778;53.574;7.770;2023-05-11T04:31:55;101559.13;;;7.12;57.41
45040;BME280;30778;53.574;7.770;2023-05-11T04:34:23;101562.63;;;7.08;57.62
45040;BME280;30778;53.574;7.770;2023-05-11T04:36:50;101564.09;;;7.28;57.03
45040;BME280;30778;53.574;7.770;2023-05-11T04:39:17;101563.16;;;7.33;56.89
45040;BME280;30778;53.574;7.770;2023-05-11T04:41:44;101571.75;;;7.39;57.33
45040;BME280;30778;53.574;7.770;2023-05-11T04:44:10;101570.63;;;7.55;57.14
45040;BME280;30778;53.574;7.770;2023-05-11T04:46:42;101558.50;;;7.52;56.70
45040;BME280;30778;53.574;7.770;2023-05-11T04:49:08;101570.69;;;7.50;57.13
45040;BME280;30778;53.574;7.770;2023-05-11T04:51:36;101566.28;;;7.57;56.91
45040;BME280;30778;53.574;7.770;2023-05-11T04:54:03;101573.25;;;7.52;56.91
45040;BME280;30778;53.574;7.770;2023-05-11T04:56:29;101563.69;;;7.56;57.13
45040;BME280;30778;53.574;7.770;2023-05-11T04:58:54;101569.56;;;7.68;57.16
45040;BME280;30778;53.574;7.770;2023-05-11T05:01:20;101572.88;;;7.77;57.02
45040;BME280;30778;53.574;7.770;2023-05-11T05:03:49;101577.16;;;7.81;56.70
45040;BME280;30778;53.574;7.770;2023-05-11T05:06:17;101571.28;;;7.69;56.39
45040;BME280;30778;53.574;7.770;2023-05-11T05:08:43;101577.16;;;7.81;57.33
45040;BME280;30778;53.574;7.770;2023-05-11T05:11:08;101572.97;;;7.73;57.09
45040;BME280;30778;53.574;7.770;2023-05-11T05:13:36;101579.53;;;7.93;56.81
45040;BME280;30778;53.574;7.770;2023-05-11T05:16:01;101580.19;;;8.06;56.27
45040;BME280;30778;53.574;7.770;2023-05-11T05:18:28;101587.91;;;8.10;55.81
45040;BME280;30778;53.574;7.770;2023-05-11T05:20:54;101586.13;;;8.12;55.89
45040;BME280;30778;53.574;7.770;2023-05-11T05:23:20;101586.31;;;8.03;55.82
45040;BME280;30778;53.574;7.770;2023-05-11T05:25:46;101588.09;;;8.01;55.65
45040;BME280;30778;53.574;7.770;2023-05-11T05:28:12;101585.31;;;8.10;55.39
45040;BME280;30778;53.574;7.770;2023-05-11T05:30:38;101582.94;;;7.98;54.95
45040;BME280;30778;53.574;7.770;2023-05-11T05:33:04;101595.88;;;8.01;55.54
45040;BME280;30778;53.574;7.770;2023-05-11T05:35:32;101590.50;;;8.12;54.98
45040;BME280;30778;53.574;7.770;2023-05-11T05:37:57;101594.03;;;8.09;55.02
45040;BME280;30778;53.574;7.770;2023-05-11T05:40:23;101600.28;;;7.98;55.27
45040;BME280;30778;53.574;7.770;2023-05-11T05:42:53;101600.44;;;7.90;55.29
45040;BME280;30778;53.574;7.770;2023-05-11T05:45:21;101602.88;;;7.98;55.39
45040;BME280;30778;53.574;7.770;2023-05-11T05:47:47;101608.91;;;8.01;55.38
45040;BME280;30778;53.574;7.770;2023-05-11T05:50:14;101601.88;;;8.06;55.44
45040;BME280;30778;53.574;7.770;2023-05-11T05:52:41;101617.56;;;8.03;55.14
45040;BME280;30778;53.574;7.770;2023-05-11T05:55:07;101612.44;;;7.99;55.62
45040;BME280;30778;53.574;7.770;2023-05-11T05:57:33;101611.50;;;8.03;54.83
45040;BME280;30778;53.574;7.770;2023-05-11T06:00:00;101608.84;;;8.04;55.46
45040;BME280;30778;53.574;7.770;2023-05-11T06:02:26;101616.78;;;7.98;55.68
45040;BME280;30778;53.574;7.770;2023-05-11T06:04:52;101612.09;;;8.17;55.07
45040;BME280;30778;53.574;7.770;2023-05-11T06:07:18;101625.13;;;8.15;54.85
45040;BME280;30778;53.574;7.770;2023-05-11T06:09:44;101618.59;;;8.41;54.07
45040;BME280;30778;53.574;7.770;2023-05-11T06:12:11;101624.00;;;8.32;53.84
45040;BME280;30778;53.574;7.770;2023-05-11T06:14:41;101625.84;;;8.25;54.32
45040;BME280;30778;53.574;7.770;2023-05-11T06:17:07;101630.06;;;8.31;54.70
45040;BME280;30778;53.574;7.770;2023-05-11T06:19:33;101633.56;;;8.30;54.32
45040;BME280;30778;53.574;7.770;2023-05-11T06:21:59;101631.72;;;8.35;53.32
45040;BME280;30778;53.574;7.770;2023-05-11T06:24:25;101637.88;;;8.31;54.19
45040;BME280;30778;53.574;7.770;2023-05-11T06:26:51;101640.44;;;8.34;54.64
45040;BME280;30778;53.574;7.770;2023-05-11T06:29:16;101629.06;;;8.38;54.30
45040;BME280;30778;53.574;7.770;2023-05-11T06:31:44;101626.31;;;8.46;54.59
45040;BME280;30778;53.574;7.770;2023-05-11T06:34:10;101633.97;;;8.53;54.20
45040;BME280;30778;53.574;7.770;2023-05-11T06:36:37;101624.09;;;8.69;54.85
45040;BME280;30778;53.574;7.770;2023-05-11T06:39:04;101631.97;;;8.68;54.39
45040;BME280;30778;53.574;7.770;2023-05-11T06:41:31;101627.53;;;8.74;54.12
45040;BME280;30778;53.574;7.770;2023-05-11T06:43:56;101626.53;;;8.80;54.06
45040;BME280;30778;53.574;7.770;2023-05-11T06:46:27;101630.09;;;8.76;53.59
45040;BME280;30778;53.574;7.770;2023-05-11T06:48:53;101627.53;;;9.16;53.21
45040;BME280;30778;53.574;7.770;2023-05-11T06:51:18;101625.91;;;9.09;52.79
45040;BME280;30778;53.574;7.770;2023-05-11T06:53:47;101628.59;;;9.06;53.13
45040;BME280;30778;53.574;7.770;2023-05-11T06:56:12;101637.06;;;9.17;53.28
45040;BME280;30778;53.574;7.770;2023-05-11T06:58:38;101631.28;;;9.03;53.09
45040;BME280;30778;53.574;7.770;2023-05-11T07:01:04;101634.25;;;9.25;52.93
45040;BME280;30778;53.574;7.770;2023-05-11T07:03:35;101627.44;;;9.19;52.74
45040;BME280;30778;53.574;7.770;2023-05-11T07:06:01;101636.88;;;9.25;51.62
45040;BME280;30778;53.574;7.770;2023-05-11T07:08:27;101636.38;;;9.47;53.06
45040;BME280;30778;53.574;7.770;2023-05-11T07:10:53;101643.47;;;9.42;53.07
45040;BME280;30778;53.574;7.770;2023-05-11T07:13:19;101635.50;;;9.48;52.74
45040;BME280;30778;53.574;7.770;2023-05-11T07:15:45;101644.50;;;9.34;53.15
45040;BME280;30778;53.574;7.770;2023-05-11T07:18:10;101639.09;;;9.44;52.95
45040;BME280;30778;53.574;7.770;2023-05-11T07:20:36;101636.59;;;9.39;52.85
45040;BME280;30778;53.574;7.770;2023-05-11T07:23:02;101633.66;;;9.51;52.17
45040;BME280;30778;53.574;7.770;2023-05-11T07:25:28;101644.84;;;9.56;52.21
45040;BME280;30778;53.574;7.770;2023-05-11T07:27:54;101642.06;;;9.64;51.75
45040;BME280;30778;53.574;7.770;2023-05-11T07:30:20;101641.16;;;9.65;52.45
45040;BME280;30778;53.574;7.770;2023-05-11T07:32:46;101641.53;;;9.50;51.76
45040;BME280;30778;53.574;7.770;2023-05-11T07:35:12;101651.81;;;9.57;52.71
45040;BME280;30778;53.574;7.770;2023-05-11T07:37:39;101648.19;;;9.63;52.15
45040;BME280;30778;53.574;7.770;2023-05-11T07:40:05;101650.16;;;9.53;51.83
45040;BME280;30778;53.574;7.770;2023-05-11T07:42:31;101652.50;;;9.66;51.80
45040;BME280;30778;53.574;7.770;2023-05-11T07:44:57;101647.53;;;9.55;52.23
45040;BME280;30778;53.574;7.770;2023-05-11T07:47:22;101647.78;;;9.82;50.89
45040;BME280;30778;53.574;7.770;2023-05-11T07:49:49;101655.25;;;9.97;50.83
45040;BME280;30778;53.574;7.770;2023-05-11T07:52:15;101651.09;;;9.51;52.55
45040;BME280;30778;53.574;7.770;2023-05-11T07:54:41;101657.03;;;9.57;51.58
45040;BME280;30778;53.574;7.770;2023-05-11T07:57:07;101648.41;;;9.54;52.07
45040;BME280;30778;53.574;7.770;2023-05-11T07:59:33;101658.31;;;9.39;53.16
45040;BME280;30778;53.574;7.770;2023-05-11T08:01:58;101654.91;;;9.36;53.88
45040;BME280;30778;53.574;7.770;2023-05-11T08:04:25;101656.28;;;9.52;53.34
45040;BME280;30778;53.574;7.770;2023-05-11T08:06:51;101660.16;;;9.34;53.17
45040;BME280;30778;53.574;7.770;2023-05-11T08:09:17;101663.69;;;9.69;53.04
45040;BME280;30778;53.574;7.770;2023-05-11T08:11:43;101663.81;;;9.65;52.84
45040;BME280;30778;53.574;7.770;2023-05-11T08:14:09;101662.38;;;9.51;52.53
45040;BME280;30778;53.574;7.770;2023-05-11T08:16:36;101666.72;;;9.52;53.37
45040;BME280;30778;53.574;7.770;2023-05-11T08:19:04;101673.09;;;9.76;52.76
45040;BME280;30778;53.574;7.770;2023-05-11T08:21:30;101670.81;;;10.00;52.53
45040;BME280;30778;53.574;7.770;2023-05-11T08:23:57;101672.41;;;10.40;52.21
45040;BME280;30778;53.574;7.770;2023-05-11T08:26:23;101675.31;;;10.62;50.40
45040;BME280;30778;53.574;7.770;2023-05-11T08:28:48;101679.63;;;10.63;50.78
45040;BME280;30778;53.574;7.770;2023-05-11T08:31:16;101673.66;;;10.59;51.60
45040;BME280;30778;53.574;7.770;2023-05-11T08:33:43;101674.81;;;10.79;50.11
45040;BME280;30778;53.574;7.770;2023-05-11T08:36:09;101680.88;;;10.81;50.79
45040;BME280;30778;53.574;7.770;2023-05-11T08:38:38;101680.41;;;10.34;51.52
45040;BME280;30778;53.574;7.770;2023-05-11T08:41:03;101680.31;;;10.37;51.91
45040;BME280;30778;53.574;7.770;2023-05-11T08:43:31;101689.53;;;10.52;51.24
45040;BME280;30778;53.574;7.770;2023-05-11T08:46:02;101682.63;;;10.82;51.58
45040;BME280;30778;53.574;7.770;2023-05-11T08:48:29;101684.03;;;10.61;51.13
45040;BME280;30778;53.574;7.770;2023-05-11T08:50:55;101680.84;;;10.84;51.10
45040;BME280;30778;53.574;7.770;2023-05-11T08:53:21;101684.19;;;11.19;50.03
45040;BME280;30778;53.574;7.770;2023-05-11T08:55:48;101669.84;;;11.60;49.51
45040;BME280;30778;53.574;7.770;2023-05-11T08:58:15;101667.56;;;11.76;48.23
45040;BME280;30778;53.574;7.770;2023-05-11T09:00:50;101672.69;;;12.07;48.76
45040;BME280;30778;53.574;7.770;2023-05-11T09:03:17;101678.06;;;12.29;46.94
45040;BME280;30778;53.574;7.770;2023-05-11T09:05:44;101678.59;;;12.14;47.38
45040;BME280;30778;53.574;7.770;2023-05-11T09:08:12;101677.25;;;12.27;46.70
45040;BME280;30778;53.574;7.770;2023-05-11T09:10:38;101679.06;;;11.72;48.93
45040;BME280;30778;53.574;7.770;2023-05-11T09:13:04;101683.13;;;11.82;48.56
45040;BME280;30778;53.574;7.770;2023-05-11T09:15:31;101678.69;;;12.11;47.79
45040;BME280;30778;53.574;7.770;2023-05-11T09:17:56;101683.25;;;12.56;47.56
45040;BME280;30778;53.574;7.770;2023-05-11T09:20:27;101677.13;;;13.04;44.67
45040;BME280;30778;53.574;7.770;2023-05-11T09:22:54;101680.97;;;13.19;45.22
45040;BME280;30778;53.574;7.770;2023-05-11T09:25:21;101681.25;;;12.88;44.63
45040;BME280;30778;53.574;7.770;2023-05-11T09:27:47;101680.63;;;12.56;46.56
45040;BME280;30778;53.574;7.770;2023-05-11T09:30:21;101680.56;;;12.33;47.44
45040;BME280;30778;53.574;7.770;2023-05-11T09:32:51;101679.06;;;12.25;48.09
45040;BME280;30778;53.574;7.770;2023-05-11T09:35:33;101683.06;;;12.11;47.40
45040;BME280;30778;53.574;7.770;2023-05-11T09:38:07;101677.84;;;12.36;46.99
45040;BME280;30778;53.574;7.770;2023-05-11T09:40:38;101678.91;;;12.55;46.44
45040;BME280;30778;53.574;7.770;2023-05-11T09:43:24;101682.66;;;12.73;45.59
45040;BME280;30778;53.574;7.770;2023-05-11T09:45:55;101683.06;;;12.86;46.28
45040;BME280;30778;53.574;7.770;2023-05-11T09:48:27;101678.97;;;12.79;45.00
45040;BME280;30778;53.574;7.770;2023-05-11T09:51:06;101682.06;;;12.90;45.44
45040;BME280;30778;53.574;7.770;2023-05-11T09:53:42;101681.97;;;13.15;45.17
45040;BME280;30778;53.574;7.770;2023-05-11T09:56:10;101679.22;;;12.96;44.68
45040;BME280;30778;53.574;7.770;2023-05-11T09:59:06;101687.47;;;12.85;45.34
45040;BME280;30778;53.574;7.770;2023-05-11T10:01:32;101684.34;;;12.49;45.94
45040;BME280;30778;53.574;7.770;2023-05-11T10:04:02;101687.91;;;12.73;45.94
45040;BME280;30778;53.574;7.770;2023-05-11T10:06:48;101690.47;;;12.75;46.24
45040;BME280;30778;53.574;7.770;2023-05-11T10:09:16;101682.94;;;12.89;45.81
45040;BME280;30778;53.574;7.770;2023-05-11T10:11:44;101680.13;;;13.41;44.42
45040;BME280;30778;53.574;7.770;2023-05-11T10:14:12;101683.53;;;14.09;42.87
45040;BME280;30778;53.574;7.770;2023-05-11T10:16:40;101685.84;;;14.37;41.67
45040;BME280;30778;53.574;7.770;2023-05-11T10:19:06;101683.94;;;14.20;42.70
45040;BME280;30778;53.574;7.770;2023-05-11T10:21:33;101680.00;;;14.10;42.17
45040;BME280;30778;53.574;7.770;2023-05-11T10:23:59;101676.81;;;13.59;43.75
45040;BME280;30778;53.574;7.770;2023-05-11T10:26:26;101676.84;;;13.80;43.44
45040;BME280;30778;53.574;7.770;2023-05-11T10:28:52;101671.22;;;13.67;43.39
45040;BME280;30778;53.574;7.770;2023-05-11T10:31:19;101678.38;;;13.18;43.42
45040;BME280;30778;53.574;7.770;2023-05-11T10:33:50;101674.59;;;13.03;45.08
45040;BME280;30778;53.574;7.770;2023-05-11T10:36:17;101677.09;;;12.57;45.65
45040;BME280;30778;53.574;7.770;2023-05-11T10:38:43;101678.16;;;13.00;44.97
45040;BME280;30778;53.574;7.770;2023-05-11T10:55:17;101692.59;;;12.63;46.32
45040;BME280;30778;53.574;7.770;2023-05-11T10:58:07;101685.09;;;13.03;45.71
45040;BME280;30778;53.574;7.770;2023-05-11T11:03:12;101699.75;;;12.85;44.88
45040;BME280;30778;53.574;7.770;2023-05-11T11:05:39;101699.41;;;12.44;46.94
45040;BME280;30778;53.574;7.770;2023-05-11T11:08:06;101695.06;;;12.69;46.27
45040;BME280;30778;53.574;7.770;2023-05-11T11:10:43;101701.66;;;13.27;46.00
45040;BME280;30778;53.574;7.770;2023-05-11T11:13:14;101695.84;;;13.19;44.45
45040;BME280;30778;53.574;7.770;2023-05-11T11:18:27;101688.38;;;12.59;46.85
45040;BME280;30778;53.574;7.770;2023-05-11T11:20:54;101688.34;;;13.09;44.50
45040;BME280;30778;53.574;7.770;2023-05-11T11:23:50;101695.44;;;12.82;44.95
45040;BME280;30778;53.574;7.770;2023-05-11T11:26:17;101700.06;;;12.76;45.32
45040;BME280;30778;53.574;7.770;2023-05-11T11:29:09;101695.59;;;13.48;44.62
45040;BME280;30778;53.574;7.770;2023-05-11T11:31:35;101696.69;;;13.87;43.30
45040;BME280;30778;53.574;7.770;2023-05-11T11:42:08;101707.78;;;14.36;42.44
45040;BME280;30778;53.574;7.770;2023-05-11T11:44:35;101691.94;;;14.38;42.09
45040;BME280;30778;53.574;7.770;2023-05-11T11:47:18;101692.75;;;14.19;42.61
45040;BME280;30778;53.574;7.770;2023-05-11T11:49:48;101703.31;;;13.75;44.09
45040;BME280;30778;53.574;7.770;2023-05-11T11:54:56;101691.03;;;14.98;40.96
45040;BME280;30778;53.574;7.770;2023-05-11T12:00:03;101685.00;;;16.25;39.48
45040;BME280;30778;53.574;7.770;2023-05-11T12:02:42;101681.66;;;14.93;41.58
45040;BME280;30778;53.574;7.770;2023-05-11T12:05:15;101682.09;;;14.63;41.15
45040;BME280;30778;53.574;7.770;2023-05-11T12:07:50;101687.47;;;13.99;42.49
45040;BME280;30778;53.574;7.770;2023-05-11T12:10:18;101690.78;;;14.24;42.45
45040;BME280;30778;53.574;7.770;2023-05-11T12:12:45;101686.19;;;14.50;41.97
45040;BME280;30778;53.574;7.770;2023-05-11T12:15:27;101684.50;;;14.68;41.87
45040;BME280;30778;53.574;7.770;2023-05-11T12:17:54;101688.88;;;14.88;41.58
45040;BME280;30778;53.574;7.770;2023-05-11T12:20:20;101688.25;;;14.01;43.17
45040;BME280;30778;53.574;7.770;2023-05-11T12:22:47;101692.25;;;14.30;43.36
45040;BME280;30778;53.574;7.770;2023-05-11T12:25:17;101690.97;;;14.61;42.99
45040;BME280;30778;53.574;7.770;2023-05-11T12:27:50;101688.75;;;14.51;42.35
45040;BME280;30778;53.574;7.770;2023-05-11T12:30:30;101685.59;;;14.43;42.09
45040;BME280;30778;53.574;7.770;2023-05-11T12:32:57;101695.94;;;14.48;42.56
45040;BME280;30778;53.574;7.770;2023-05-11T12:35:29;101683.41;;;14.92;41.71
45040;BME280;30778;53.574;7.770;2023-05-11T12:37:56;101683.56;;;14.89;41.71
45040;BME280;30778;53.574;7.770;2023-05-11T12:40:22;101688.72;;;14.72;42.79
45040;BME280;30778;53.574;7.770;2023-05-11T12:42:52;101687.00;;;14.30;43.60
45040;BME280;30778;53.574;7.770;2023-05-11T12:45:19;101698.69;;;14.02;43.26
45040;BME280;30778;53.574;7.770;2023-05-11T12:47:47;101687.53;;;14.18;43.54
45040;BME280;30778;53.574;7.770;2023-05-11T12:50:13;101686.59;;;14.41;42.73
45040;BME280;30778;53.574;7.770;2023-05-11T12:52:39;101693.25;;;14.07;43.29
45040;BME280;30778;53.574;7.770;2023-05-11T12:55:05;101691.44;;;14.50;42.76
45040;BME280;30778;53.574;7.770;2023-05-11T12:57:31;101685.50;;;14.86;41.78
45040;BME280;30778;53.574;7.770;2023-05-11T13:00:24;101694.06;;;14.50;42.54
45040;BME280;30778;53.574;7.770;2023-05-11T13:02:51;101687.53;;;13.97;43.63
45040;BME280;30778;53.574;7.770;2023-05-11T13:05:22;101690.78;;;12.90;46.14
45040;BME280;30778;53.574;7.770;2023-05-11T13:08:03;101691.84;;;12.60;46.89
45040;BME280;30778;53.574;7.770;2023-05-11T13:10:29;101697.59;;;12.46;47.52
45040;BME280;30778;53.574;7.770;2023-05-11T13:12:55;101689.72;;;13.18;46.18
45040;BME280;30778;53.574;7.770;2023-05-11T13:15:22;101695.81;;;13.66;45.51
45040;BME280;30778;53.574;7.770;2023-05-11T13:18:04;101692.75;;;13.31;45.66
45040;BME280;30778;53.574;7.770;2023-05-11T13:20:31;101692.34;;;13.42;45.09
45040;BME280;30778;53.574;7.770;2023-05-11T13:23:09;101696.59;;;13.68;44.01
45040;BME280;30778;53.574;7.770;2023-05-11T13:25:55;101702.44;;;13.52;44.46
45040;BME280;30778;53.574;7.770;2023-05-11T13:28:22;101690.66;;;12.68;46.76
45040;BME280;30778;53.574;7.770;2023-05-11T13:30:49;101694.03;;;12.22;47.59
45040;BME280;30778;53.574;7.770;2023-05-11T13:33:19;101694.84;;;12.49;47.59
45040;BME280;30778;53.574;7.770;2023-05-11T13:35:46;101690.78;;;12.65;47.28
45040;BME280;30778;53.574;7.770;2023-05-11T13:38:12;101683.63;;;12.45;47.30
45040;BME280;30778;53.574;7.770;2023-05-11T13:40:38;101690.19;;;11.80;48.75
45040;BME280;30778;53.574;7.770;2023-05-11T13:43:04;101690.69;;;12.18;48.17
45040;BME280;30778;53.574;7.770;2023-05-11T13:45:30;101691.66;;;12.41;47.65
45040;BME280;30778;53.574;7.770;2023-05-11T13:47:55;101685.97;;;12.28;48.05
45040;BME280;30778;53.574;7.770;2023-05-11T13:50:22;101684.78;;;12.37;47.23